Shell Beach, Louisiana
Current Conditions -  °F | °C
As of 2:55 AM on Wednesday 22 Oct 2014 (Local Time) from KNBG Reporting Station
Clear Clear  
Wind Chill: 58°   Ceiling: Unl
Heat Index: 58°   Visibility: NA
Dew Point: 54°   Wind: 3mph
Humidity: 87%   Direction: 30°NNE
Pressure: 30.01"   Gusts: NA
Location:  29.8369°N, 89.7702°W
Report Text: KNBG 220755Z AUTO 03003KT CLR 14/12 A3001 RMK AO2 SLP162 T01440122 TSNO $
Loading
Personal Weather Stations






























Interactive Weather Map
Tropical Storm Tracking
New forecast layout! Learn more

10-Day Weather Forecast

Advertisements
Track Severe Weather on mobile